createdAt,value
2024-04-11T00:00:34.980Z,1002.00
2024-04-11T00:01:35.515Z,998.00
2024-04-11T00:02:35.106Z,998.00
2024-04-11T00:03:35.262Z,996.00
2024-04-11T00:04:35.197Z,996.00
2024-04-11T00:05:35.272Z,996.00
2024-04-11T00:06:35.231Z,997.00
2024-04-11T00:07:35.292Z,996.00
2024-04-11T00:08:35.346Z,999.00
2024-04-11T00:09:35.356Z,999.00
2024-04-11T00:10:35.477Z,1001.00
2024-04-11T00:11:35.538Z,999.00
2024-04-11T00:12:35.636Z,999.00
2024-04-11T00:13:35.557Z,999.00
2024-04-11T00:14:35.610Z,997.00
2024-04-11T00:15:36.464Z,996.00
2024-04-11T00:16:35.718Z,992.00
2024-04-11T00:17:35.787Z,992.00
2024-04-11T00:18:50.274Z,982.00
2024-04-11T00:19:50.156Z,980.00
2024-04-11T00:20:50.182Z,983.00
2024-04-11T00:21:50.149Z,983.00
2024-04-11T00:22:50.153Z,986.00
2024-04-11T00:23:50.191Z,989.00
2024-04-11T00:24:50.160Z,988.00
2024-04-11T00:25:50.171Z,987.00
2024-04-11T00:26:50.232Z,987.00
2024-04-11T00:27:50.222Z,987.00
2024-04-11T00:28:50.254Z,986.00
2024-04-11T00:29:50.341Z,987.00
2024-04-11T00:30:50.344Z,987.00
2024-04-11T00:31:50.385Z,986.00
2024-04-11T00:32:50.748Z,988.00
2024-04-11T00:33:50.983Z,988.00
2024-04-11T00:34:50.541Z,985.00
2024-04-11T00:35:50.601Z,986.00
2024-04-11T00:36:50.616Z,987.00
2024-04-11T00:37:50.661Z,986.00
2024-04-11T00:38:50.736Z,986.00
2024-04-11T00:39:50.778Z,986.00
2024-04-11T00:40:50.803Z,985.00
2024-04-11T00:41:50.925Z,983.00
2024-04-11T00:42:50.881Z,983.00
2024-04-11T00:43:50.926Z,981.00
2024-04-11T00:44:50.978Z,980.00
2024-04-11T00:45:51.034Z,977.00
2024-04-11T00:46:51.105Z,977.00
2024-04-11T00:47:54.426Z,976.00
2024-04-11T00:48:51.153Z,978.00
2024-04-11T00:49:51.115Z,977.00
2024-04-11T00:50:51.148Z,976.00
2024-04-11T00:51:51.093Z,976.00
2024-04-11T00:52:51.115Z,976.00
2024-04-11T00:53:51.152Z,975.00
2024-04-11T00:54:51.130Z,976.00
2024-04-11T00:55:51.104Z,978.00
2024-04-11T00:56:51.206Z,978.00
2024-04-11T00:57:51.107Z,976.00
2024-04-11T00:58:51.119Z,973.00
2024-04-11T00:59:51.254Z,971.00
2024-04-11T01:00:51.152Z,967.00
2024-04-11T01:01:51.120Z,965.00
2024-04-11T01:02:51.234Z,969.00
2024-04-11T01:03:51.427Z,969.00
2024-04-11T01:04:51.205Z,971.00
2024-04-11T01:05:51.181Z,971.00
2024-04-11T01:06:51.122Z,971.00
2024-04-11T01:07:51.107Z,969.00
2024-04-11T01:08:51.153Z,968.00
2024-04-11T01:09:51.168Z,967.00
2024-04-11T01:10:51.149Z,966.00
2024-04-11T01:11:51.172Z,964.00
2024-04-11T01:12:51.106Z,962.00
2024-04-11T01:13:51.127Z,961.00
2024-04-11T01:14:51.692Z,961.00
2024-04-11T01:15:51.124Z,962.00
2024-04-11T01:16:51.122Z,964.00
2024-04-11T01:17:51.301Z,963.00
2024-04-11T01:18:51.181Z,963.00
2024-04-11T01:19:51.356Z,961.00
2024-04-11T01:20:51.138Z,954.00
2024-04-11T01:21:51.149Z,955.00
2024-04-11T01:22:51.131Z,955.00
2024-04-11T01:23:51.183Z,954.00
2024-04-11T01:24:51.122Z,955.00
2024-04-11T01:25:51.132Z,952.00
2024-04-11T01:26:51.244Z,951.00
2024-04-11T01:27:51.190Z,953.00
2024-04-11T01:28:51.240Z,953.00
2024-04-11T01:29:51.318Z,953.00
2024-04-11T01:30:51.333Z,953.00
2024-04-11T01:31:51.368Z,953.00
2024-04-11T01:32:51.548Z,955.00
2024-04-11T01:33:51.585Z,955.00
2024-04-11T01:34:51.616Z,957.00
2024-04-11T01:35:51.642Z,956.00
2024-04-11T01:36:51.610Z,955.00
2024-04-11T01:37:51.651Z,955.00
2024-04-11T01:38:51.790Z,956.00
2024-04-11T01:39:51.761Z,956.00
2024-04-11T01:40:51.834Z,955.00
2024-04-11T01:41:51.872Z,955.00
2024-04-11T01:42:51.888Z,956.00
2024-04-11T01:43:51.939Z,955.00
2024-04-11T01:44:52.094Z,955.00
2024-04-11T01:45:52.051Z,953.00
2024-04-11T01:46:52.090Z,952.00
2024-04-11T01:47:52.212Z,952.00
2024-04-11T01:48:52.274Z,950.00
2024-04-11T01:49:52.219Z,951.00
2024-04-11T01:50:52.348Z,953.00
2024-04-11T01:51:52.320Z,950.00
2024-04-11T01:52:52.365Z,951.00
2024-04-11T01:53:52.466Z,948.00
2024-04-11T01:54:52.482Z,949.00
2024-04-11T01:55:52.517Z,951.00
2024-04-11T01:56:52.585Z,948.00
2024-04-11T01:57:52.598Z,948.00
2024-04-11T01:58:52.676Z,948.00
2024-04-11T01:59:52.736Z,948.00
2024-04-11T02:00:52.781Z,949.00
2024-04-11T02:01:52.855Z,948.00
2024-04-11T02:02:52.906Z,945.00
2024-04-11T02:03:53.138Z,943.00
2024-04-11T02:04:53.003Z,942.00
2024-04-11T02:05:53.063Z,941.00
2024-04-11T02:06:53.027Z,938.00
2024-04-11T02:07:53.082Z,937.00
2024-04-11T02:08:53.243Z,935.00
2024-04-11T02:09:53.176Z,934.00
2024-04-11T02:10:53.272Z,935.00
2024-04-11T02:11:53.451Z,934.00
2024-04-11T02:12:53.328Z,933.00
2024-04-11T02:13:53.382Z,933.00
2024-04-11T02:14:53.445Z,934.00
2024-04-11T02:15:53.477Z,934.00
2024-04-11T02:16:53.659Z,934.00
2024-04-11T02:17:53.591Z,935.00
2024-04-11T02:18:53.693Z,934.00
2024-04-11T02:19:53.659Z,933.00
2024-04-11T02:20:53.749Z,935.00
2024-04-11T02:21:56.025Z,935.00
2024-04-11T02:22:53.762Z,934.00
2024-04-11T02:23:53.788Z,932.00
2024-04-11T02:24:53.756Z,934.00
2024-04-11T02:25:53.779Z,938.00
2024-04-11T02:26:53.813Z,937.00
2024-04-11T02:27:53.765Z,939.00
2024-04-11T02:28:53.774Z,941.00
2024-04-11T02:29:53.816Z,942.00
2024-04-11T02:30:53.825Z,943.00
2024-04-11T02:31:53.801Z,945.00
2024-04-11T02:32:53.933Z,946.00
2024-04-11T02:33:53.981Z,944.00
2024-04-11T02:34:53.835Z,942.00
2024-04-11T02:35:53.831Z,940.00
2024-04-11T02:36:53.795Z,940.00
2024-04-11T02:37:53.796Z,942.00
2024-04-11T02:38:53.859Z,944.00
2024-04-11T02:39:53.778Z,943.00
2024-04-11T02:40:53.785Z,941.00
2024-04-11T02:41:53.851Z,939.00
2024-04-11T02:42:53.797Z,934.00
2024-04-11T02:43:53.782Z,931.00
2024-04-11T02:44:53.817Z,929.00
2024-04-11T02:45:53.801Z,927.00
2024-04-11T02:46:53.835Z,926.00
2024-04-11T02:47:54.019Z,924.00
2024-04-11T02:48:53.929Z,923.00
2024-04-11T02:49:53.803Z,921.00
2024-04-11T02:50:53.821Z,921.00
2024-04-11T02:51:53.791Z,921.00
2024-04-11T02:52:53.800Z,921.00
2024-04-11T02:53:53.818Z,921.00
2024-04-11T02:54:53.826Z,921.00
2024-04-11T02:55:53.789Z,920.00
2024-04-11T02:56:53.824Z,918.00
2024-04-11T02:57:53.794Z,921.00
2024-04-11T02:58:53.804Z,924.00
2024-04-11T02:59:53.852Z,926.00
2024-04-11T03:00:54.002Z,927.00
2024-04-11T03:01:53.908Z,928.00
2024-04-11T03:02:53.974Z,930.00
2024-04-11T03:03:54.052Z,929.00
2024-04-11T03:04:53.942Z,928.00
2024-04-11T03:05:53.906Z,927.00
2024-04-11T03:06:53.899Z,926.00
2024-04-11T03:07:53.899Z,925.00
2024-04-11T03:08:53.971Z,927.00
2024-04-11T03:09:53.917Z,923.00
2024-04-11T03:10:53.895Z,923.00
2024-04-11T03:11:53.934Z,923.00
2024-04-11T03:12:53.991Z,922.00
2024-04-11T03:13:53.908Z,919.00
2024-04-11T03:14:53.956Z,920.00
2024-04-11T03:15:53.950Z,918.00
2024-04-11T03:16:53.972Z,919.00
2024-04-11T03:17:54.015Z,918.00
2024-04-11T03:18:54.025Z,919.00
2024-04-11T03:19:53.992Z,919.00
2024-04-11T03:20:54.063Z,919.00
2024-04-11T03:21:54.068Z,920.00
2024-04-11T03:22:54.144Z,923.00
2024-04-11T03:23:54.263Z,925.00
2024-04-11T03:24:54.188Z,925.00
2024-04-11T03:25:54.232Z,924.00
2024-04-11T03:26:54.329Z,925.00
2024-04-11T03:27:54.343Z,925.00
2024-04-11T03:28:54.375Z,924.00
2024-04-11T03:29:54.462Z,927.00
2024-04-11T03:30:54.466Z,924.00
2024-04-11T03:31:54.508Z,925.00
2024-04-11T03:32:54.663Z,924.00
2024-04-11T03:33:54.794Z,925.00
2024-04-11T03:34:54.647Z,922.00
2024-04-11T03:35:54.731Z,923.00
2024-04-11T03:36:54.716Z,923.00
2024-04-11T03:37:54.763Z,922.00
2024-04-11T03:38:54.873Z,923.00
2024-04-11T03:39:54.847Z,921.00
2024-04-11T03:40:56.639Z,919.00
2024-04-11T03:41:54.991Z,918.00
2024-04-11T03:42:54.989Z,921.00
2024-04-11T03:43:55.033Z,921.00
2024-04-11T03:44:55.118Z,918.00
2024-04-11T03:45:55.131Z,917.00
2024-04-11T03:46:55.271Z,914.00
2024-04-11T03:47:55.406Z,916.00
2024-04-11T03:48:55.436Z,916.00
2024-04-11T03:49:55.322Z,915.00
2024-04-11T03:50:55.420Z,915.00
2024-04-11T03:51:55.396Z,916.00
2024-04-11T03:52:55.504Z,916.00
2024-04-11T03:53:55.875Z,916.00
2024-04-11T03:54:55.565Z,916.00
2024-04-11T03:55:55.613Z,917.00
2024-04-11T03:56:55.696Z,915.00
2024-04-11T03:57:55.718Z,915.00
2024-04-11T03:58:55.786Z,913.00
2024-04-11T03:59:55.859Z,914.00
2024-04-11T04:00:55.925Z,914.00
2024-04-11T04:01:55.979Z,915.00
2024-04-11T04:02:56.134Z,916.00
2024-04-11T04:03:56.242Z,916.00
2024-04-11T04:04:56.183Z,917.00
2024-04-11T04:05:56.269Z,918.00
2024-04-11T04:06:56.263Z,917.00
2024-04-11T04:07:56.294Z,916.00
2024-04-11T04:08:56.540Z,913.00
2024-04-11T04:09:56.409Z,910.00
2024-04-11T04:10:56.457Z,909.00
2024-04-11T04:11:56.656Z,908.00
2024-04-11T04:12:56.574Z,908.00
2024-04-11T04:13:56.655Z,907.00
2024-04-11T04:14:56.752Z,906.00
2024-04-11T04:15:56.795Z,904.00
2024-04-11T04:16:56.797Z,905.00
2024-04-11T04:17:56.903Z,907.00
2024-04-11T04:18:56.945Z,911.00
2024-04-11T04:19:56.980Z,909.00
2024-04-11T04:20:57.089Z,909.00
2024-04-11T04:21:57.105Z,908.00
2024-04-11T04:22:57.154Z,907.00
2024-04-11T04:23:57.339Z,906.00
2024-04-11T04:24:57.269Z,906.00
2024-04-11T04:25:57.323Z,907.00
2024-04-11T04:26:57.464Z,909.00
2024-04-11T04:27:57.423Z,907.00
2024-04-11T04:28:57.504Z,906.00
2024-04-11T04:29:57.574Z,904.00
2024-04-11T04:30:58.598Z,903.00
2024-04-11T04:31:57.638Z,903.00
2024-04-11T04:32:57.951Z,903.00
2024-04-11T04:33:57.971Z,902.00
2024-04-11T04:34:57.806Z,902.00
2024-04-11T04:35:57.930Z,897.00
2024-04-11T04:36:57.884Z,899.00
2024-04-11T04:37:57.931Z,898.00
2024-04-11T04:38:58.084Z,897.00
2024-04-11T04:39:58.032Z,897.00
2024-04-11T04:40:58.054Z,899.00
2024-04-11T04:41:58.161Z,897.00
2024-04-11T04:42:58.162Z,898.00
2024-04-11T04:43:58.231Z,898.00
2024-04-11T04:44:58.307Z,899.00
2024-04-11T04:45:58.304Z,895.00
2024-04-11T04:46:58.390Z,896.00
2024-04-11T04:47:58.659Z,896.00
2024-04-11T04:48:58.545Z,895.00
2024-04-11T04:50:05.803Z,885.00
2024-04-11T04:51:05.926Z,884.00
2024-04-11T04:52:05.780Z,883.00
2024-04-11T04:53:05.826Z,884.00
2024-04-11T04:54:06.053Z,886.00
2024-04-11T04:55:05.911Z,885.00
2024-04-11T04:56:07.811Z,885.00
2024-04-11T04:57:06.025Z,887.00
2024-04-11T04:58:05.870Z,887.00
2024-04-11T04:59:05.861Z,887.00
2024-04-11T05:00:05.920Z,885.00
2024-04-11T05:01:05.969Z,882.00
2024-04-11T05:02:05.948Z,882.00
2024-04-11T05:03:06.035Z,881.00
2024-04-11T05:04:06.192Z,884.00
2024-04-11T05:05:06.022Z,884.00
2024-04-11T05:06:06.125Z,887.00
2024-04-11T05:07:05.954Z,887.00
2024-04-11T05:08:05.954Z,888.00
2024-04-11T05:09:06.056Z,889.00
2024-04-11T05:10:06.898Z,890.00
2024-04-11T05:11:06.086Z,891.00
2024-04-11T05:12:06.179Z,891.00
2024-04-11T05:13:05.964Z,890.00
2024-04-11T05:14:05.961Z,890.00
2024-04-11T05:15:06.046Z,890.00
2024-04-11T05:16:06.061Z,889.00
2024-04-11T05:17:05.980Z,888.00
2024-04-11T05:18:06.097Z,887.00
2024-04-11T05:19:06.202Z,886.00
2024-04-11T05:20:06.086Z,887.00
2024-04-11T05:21:06.215Z,885.00
2024-04-11T05:22:06.126Z,882.00
2024-04-11T05:23:06.154Z,882.00
2024-04-11T05:24:06.311Z,881.00
2024-04-11T05:25:06.139Z,884.00
2024-04-11T05:26:06.124Z,885.00
2024-04-11T05:27:06.284Z,885.00
2024-04-11T05:28:06.120Z,883.00
2024-04-11T05:29:06.117Z,878.00
2024-04-11T05:30:06.217Z,875.00
2024-04-11T05:31:06.139Z,873.00
2024-04-11T05:32:06.142Z,873.00
2024-04-11T05:33:06.476Z,875.00
2024-04-11T05:34:06.183Z,872.00
2024-04-11T05:35:06.138Z,873.00
2024-04-11T05:36:06.322Z,876.00
2024-04-11T05:37:06.130Z,885.00
2024-04-11T05:38:06.122Z,952.00
2024-04-11T05:39:06.391Z,960.00
2024-04-11T05:40:06.180Z,963.00
2024-04-11T05:41:06.129Z,981.00
2024-04-11T05:42:06.299Z,999.00
2024-04-11T05:43:07.072Z,1007.00
2024-04-11T05:44:06.137Z,1014.00
2024-04-11T05:45:06.256Z,1016.00
2024-04-11T05:46:06.221Z,1015.00
2024-04-11T05:47:06.288Z,1014.00
2024-04-11T05:48:09.451Z,1019.00
2024-04-11T05:49:07.590Z,1049.00
2024-04-11T05:50:06.320Z,1068.00
2024-04-11T05:51:06.445Z,1078.00
2024-04-11T05:52:06.315Z,1079.00
2024-04-11T05:53:06.315Z,815.00
2024-04-11T05:54:06.726Z,793.00
2024-04-11T05:55:06.357Z,744.00
2024-04-11T05:56:06.351Z,714.00
2024-04-11T05:57:06.444Z,668.00
2024-04-11T05:58:06.364Z,657.00
2024-04-11T05:59:06.358Z,643.00
2024-04-11T06:00:06.604Z,615.00
2024-04-11T06:01:06.670Z,603.00
2024-04-11T06:02:06.706Z,603.00
2024-04-11T06:03:06.754Z,594.00
2024-04-11T06:04:06.935Z,587.00
2024-04-11T06:05:06.860Z,583.00
2024-04-11T06:06:07.034Z,580.00
2024-04-11T06:07:07.051Z,577.00
2024-04-11T06:08:07.932Z,572.00
2024-04-11T06:09:07.233Z,570.00
2024-04-11T06:10:07.239Z,566.00
2024-04-11T06:11:07.382Z,561.00
2024-04-11T06:12:07.379Z,569.00
2024-04-11T06:13:07.413Z,565.00
2024-04-11T06:14:07.396Z,562.00
2024-04-11T06:15:07.588Z,558.00
2024-04-11T06:16:07.574Z,562.00
2024-04-11T06:17:07.525Z,563.00
2024-04-11T06:18:07.616Z,561.00
2024-04-11T06:19:07.636Z,564.00
2024-04-11T06:20:07.668Z,561.00
2024-04-11T06:21:07.822Z,563.00
2024-04-11T06:22:07.789Z,561.00
2024-04-11T06:23:07.855Z,562.00
2024-04-11T06:24:40.564Z,548.00
2024-04-11T06:25:40.582Z,553.00
2024-04-11T06:26:40.591Z,551.00
2024-04-11T06:27:40.589Z,550.00
2024-04-11T06:28:40.998Z,555.00
2024-04-11T06:29:40.623Z,548.00
2024-04-11T06:30:40.612Z,546.00
2024-04-11T06:31:41.116Z,555.00
2024-04-11T06:32:40.711Z,562.00
2024-04-11T06:33:40.714Z,558.00
2024-04-11T06:34:40.649Z,552.00
2024-04-11T06:35:40.603Z,554.00
2024-04-11T06:36:40.708Z,546.00
2024-04-11T06:37:40.585Z,554.00
2024-04-11T06:38:40.992Z,555.00
2024-04-11T06:39:40.593Z,552.00
2024-04-11T06:40:40.577Z,551.00
2024-04-11T06:41:40.618Z,553.00
2024-04-11T06:42:40.594Z,554.00
2024-04-11T06:43:40.569Z,555.00
2024-04-11T06:44:40.604Z,555.00
2024-04-11T06:45:40.604Z,556.00
2024-04-11T06:46:40.713Z,561.00
2024-04-11T06:47:43.758Z,557.00
2024-04-11T06:48:41.762Z,556.00
2024-04-11T06:49:40.710Z,552.00
2024-04-11T06:50:40.734Z,555.00
2024-04-11T06:51:40.741Z,553.00
2024-04-11T06:52:40.727Z,554.00
2024-04-11T06:53:40.878Z,560.00
2024-04-11T06:54:40.745Z,564.00
2024-04-11T06:55:40.743Z,570.00
2024-04-11T06:56:40.812Z,578.00
2024-04-11T06:57:40.710Z,643.00
2024-04-11T06:58:40.715Z,699.00
2024-04-11T06:59:40.719Z,788.00
2024-04-11T07:00:40.782Z,853.00
2024-04-11T07:01:41.909Z,861.00
2024-04-11T07:02:40.802Z,867.00
2024-04-11T07:03:41.647Z,904.00
2024-04-11T07:04:40.708Z,906.00
2024-04-11T07:05:40.812Z,912.00
2024-04-11T07:06:40.717Z,919.00
2024-04-11T07:07:40.750Z,934.00
2024-04-11T07:08:40.752Z,944.00
2024-04-11T07:09:40.848Z,955.00
2024-04-11T07:10:40.787Z,967.00
2024-04-11T07:11:40.750Z,975.00
2024-04-11T07:12:40.737Z,977.00
2024-04-11T07:13:40.732Z,980.00
2024-04-11T07:14:40.739Z,982.00
2024-04-11T07:15:40.784Z,974.00
2024-04-11T07:16:40.792Z,977.00
2024-04-11T07:17:40.808Z,976.00
2024-04-11T07:18:40.724Z,979.00
2024-04-11T07:19:40.747Z,984.00
2024-04-11T07:20:40.796Z,1013.00
2024-04-11T07:21:40.776Z,1006.00
2024-04-11T07:22:40.893Z,992.00
2024-04-11T07:23:41.029Z,1002.00
2024-04-11T07:24:41.146Z,983.00
2024-04-11T07:25:41.265Z,1003.00
2024-04-11T07:26:41.395Z,1011.00
2024-04-11T07:27:41.461Z,1055.00
2024-04-11T07:28:41.597Z,1045.00
2024-04-11T07:29:41.751Z,1051.00
2024-04-11T07:30:41.834Z,1069.00
2024-04-11T07:31:42.000Z,1127.00
2024-04-11T07:32:42.090Z,1144.00
2024-04-11T07:33:42.395Z,1136.00
2024-04-11T07:34:42.211Z,1157.00
2024-04-11T07:35:42.335Z,1173.00
2024-04-11T07:36:42.382Z,1228.00
2024-04-11T07:37:42.412Z,1184.00
2024-04-11T07:38:42.479Z,1219.00
2024-04-11T07:39:42.532Z,1225.00
2024-04-11T07:40:42.608Z,1229.00
2024-04-11T07:41:42.710Z,1231.00
2024-04-11T07:42:42.735Z,1239.00
2024-04-11T07:43:42.804Z,1265.00
2024-04-11T07:44:42.884Z,1245.00
2024-04-11T07:45:42.879Z,1250.00
2024-04-11T07:46:51.088Z,1319.00
2024-04-11T07:47:50.868Z,1197.00
2024-04-11T07:48:44.001Z,1074.00
2024-04-11T07:49:43.454Z,1074.00
2024-04-11T07:50:42.982Z,1063.00
2024-04-11T07:51:42.950Z,1047.00
2024-04-11T07:52:42.960Z,1036.00
2024-04-11T07:53:43.004Z,1020.00
2024-04-11T07:54:47.335Z,947.00
2024-04-11T07:55:43.969Z,931.00
2024-04-11T07:56:43.004Z,916.00
2024-04-11T07:57:42.970Z,898.00
2024-04-11T07:58:42.965Z,880.00
2024-04-11T07:59:43.338Z,871.00
2024-04-11T08:00:43.003Z,862.00
2024-04-11T08:01:43.027Z,858.00
2024-04-11T08:02:43.009Z,853.00
2024-04-11T08:03:43.000Z,842.00
2024-04-11T08:04:43.004Z,823.00
2024-04-11T08:05:43.038Z,817.00
2024-04-11T08:06:43.138Z,808.00
2024-04-11T08:07:43.024Z,794.00
2024-04-11T08:08:43.075Z,782.00
2024-04-11T08:09:43.031Z,775.00
2024-04-11T08:10:43.076Z,771.00
2024-04-11T08:11:43.225Z,763.00
2024-04-11T08:12:43.212Z,752.00
2024-04-11T08:13:45.868Z,740.00
2024-04-11T08:14:43.504Z,727.00
2024-04-11T08:15:44.553Z,713.00
2024-04-11T08:16:43.399Z,706.00
2024-04-11T08:17:43.372Z,700.00
2024-04-11T08:18:43.319Z,692.00
2024-04-11T08:19:51.716Z,685.00
2024-04-11T08:20:44.361Z,674.00
2024-04-11T08:21:43.344Z,665.00
2024-04-11T08:22:43.342Z,657.00
2024-04-11T08:23:43.378Z,652.00
2024-04-11T08:24:43.367Z,646.00
2024-04-11T08:25:43.363Z,641.00
2024-04-11T08:26:43.355Z,639.00
2024-04-11T08:27:43.418Z,640.00
2024-04-11T08:28:43.389Z,639.00
2024-04-11T08:29:43.395Z,643.00
2024-04-11T08:30:43.363Z,644.00
2024-04-11T08:31:43.389Z,640.00
2024-04-11T08:32:43.442Z,635.00
2024-04-11T08:33:43.510Z,633.00
2024-04-11T08:34:43.514Z,630.00
2024-04-11T08:35:43.582Z,628.00
2024-04-11T08:36:43.632Z,626.00
2024-04-11T08:37:43.718Z,626.00
2024-04-11T08:38:43.822Z,626.00
2024-04-11T08:39:43.867Z,627.00
2024-04-11T08:40:43.945Z,630.00
2024-04-11T08:41:44.036Z,633.00
2024-04-11T08:42:44.081Z,627.00
2024-04-11T08:43:44.209Z,656.00
2024-04-11T08:44:44.272Z,682.00
2024-04-11T08:45:44.734Z,793.00
2024-04-11T08:46:44.349Z,806.00
2024-04-11T08:47:44.453Z,830.00
2024-04-11T08:48:44.656Z,864.00
2024-04-11T08:49:46.506Z,961.00
2024-04-11T08:50:44.663Z,1026.00
2024-04-11T08:51:44.545Z,1141.00
2024-04-11T08:52:44.404Z,1104.00
2024-04-11T08:53:55.459Z,1029.00
2024-04-11T08:54:45.399Z,1002.00
2024-04-11T08:55:44.417Z,847.00
2024-04-11T08:56:44.452Z,851.00
2024-04-11T08:57:44.419Z,883.00
2024-04-11T08:58:44.413Z,970.00
2024-04-11T08:59:45.550Z,1045.00
2024-04-11T09:00:44.471Z,1049.00
2024-04-11T09:01:44.448Z,1059.00
2024-04-11T09:02:44.461Z,1027.00
2024-04-11T09:03:44.491Z,1079.00
2024-04-11T09:04:45.446Z,1052.00
2024-04-11T09:05:45.625Z,1070.00
2024-04-11T09:06:44.449Z,1071.00
2024-04-11T09:07:44.472Z,1040.00
2024-04-11T09:08:44.520Z,1050.00
2024-04-11T09:09:44.547Z,1030.00
2024-04-11T09:10:44.654Z,910.00
2024-04-11T09:11:44.719Z,921.00
2024-04-11T09:12:44.749Z,930.00
2024-04-11T09:13:44.818Z,970.00
2024-04-11T09:14:44.885Z,1014.00
2024-04-11T09:15:44.932Z,937.00
2024-04-11T09:16:44.940Z,883.00
2024-04-11T09:17:45.238Z,891.00
2024-04-11T09:18:45.078Z,920.00
2024-04-11T09:19:45.166Z,914.00
2024-04-11T09:20:45.268Z,933.00
2024-04-11T09:21:45.401Z,977.00
2024-04-11T09:22:45.404Z,972.00
2024-04-11T09:23:45.503Z,952.00
2024-04-11T09:24:45.736Z,1017.00
2024-04-11T09:25:45.656Z,968.00
2024-04-11T09:26:45.821Z,977.00
2024-04-11T09:27:45.900Z,935.00
2024-04-11T09:28:46.013Z,1006.00
2024-04-11T09:29:46.186Z,932.00
2024-04-11T09:30:46.288Z,910.00
2024-04-11T09:31:46.378Z,918.00
2024-04-11T09:32:46.611Z,931.00
2024-04-11T09:33:46.817Z,1000.00
2024-04-11T09:34:46.742Z,925.00
2024-04-11T09:35:46.920Z,970.00
2024-04-11T09:36:46.961Z,987.00
2024-04-11T09:37:47.074Z,984.00
2024-04-11T09:38:47.247Z,975.00
2024-04-11T09:39:47.962Z,1006.00
2024-04-11T09:40:47.355Z,1023.00
2024-04-11T09:41:47.536Z,1020.00
2024-04-11T09:42:47.623Z,1030.00
2024-04-11T09:43:47.753Z,1039.00
2024-04-11T09:44:47.923Z,1066.00
2024-04-11T09:45:48.035Z,1058.00
2024-04-11T09:46:48.258Z,997.00
2024-04-11T09:47:48.275Z,996.00
2024-04-11T09:48:48.446Z,982.00
2024-04-11T09:49:48.425Z,971.00
2024-04-11T09:50:48.510Z,961.00
2024-04-11T09:51:48.586Z,944.00
2024-04-11T09:52:51.649Z,952.00
2024-04-11T09:53:48.714Z,1020.00
2024-04-11T09:54:48.732Z,1080.00
2024-04-11T09:55:48.701Z,1095.00
2024-04-11T09:56:48.740Z,1108.00
2024-04-11T09:57:48.701Z,1123.00
2024-04-11T09:58:48.704Z,1153.00
2024-04-11T09:59:50.394Z,1173.00
2024-04-11T10:00:48.750Z,1188.00
2024-04-11T10:01:48.714Z,1199.00
2024-04-11T10:02:48.821Z,1210.00
2024-04-11T10:03:48.755Z,1213.00
2024-04-11T10:04:48.722Z,1195.00
2024-04-11T10:05:48.755Z,1218.00
2024-04-11T10:06:48.726Z,1242.00
2024-04-11T10:07:48.707Z,1254.00
2024-04-11T10:08:48.920Z,1253.00
2024-04-11T10:09:48.704Z,1263.00
2024-04-11T10:10:48.714Z,1276.00
2024-04-11T10:11:48.878Z,1290.00
2024-04-11T10:12:48.725Z,1288.00
2024-04-11T10:13:48.726Z,1289.00
2024-04-11T10:14:48.756Z,1298.00
2024-04-11T10:15:48.731Z,1310.00
2024-04-11T10:16:48.721Z,1375.00
2024-04-11T10:17:48.955Z,1347.00
2024-04-11T10:18:49.765Z,1350.00
2024-04-11T10:19:48.798Z,1459.00
2024-04-11T10:20:48.746Z,1446.00
2024-04-11T10:21:53.898Z,1435.00
2024-04-11T10:22:49.719Z,1421.00
2024-04-11T10:23:48.743Z,1357.00
2024-04-11T10:24:48.727Z,1378.00
2024-04-11T10:25:48.738Z,1374.00
2024-04-11T10:26:48.992Z,1360.00
2024-04-11T10:27:48.740Z,1361.00
2024-04-11T10:28:48.726Z,1363.00
2024-04-11T10:29:49.261Z,1373.00
2024-04-11T10:30:48.744Z,1382.00
2024-04-11T10:31:48.725Z,1395.00
2024-04-11T10:32:49.032Z,1408.00
2024-04-11T10:33:49.000Z,1400.00
2024-04-11T10:34:48.739Z,1401.00
2024-04-11T10:35:48.830Z,1400.00
2024-04-11T10:36:48.764Z,1389.00
2024-04-11T10:37:48.817Z,1354.00
2024-04-11T10:38:48.932Z,1368.00
2024-04-11T10:39:48.919Z,1362.00
2024-04-11T10:40:48.927Z,1357.00
2024-04-11T10:41:49.021Z,1356.00
2024-04-11T10:42:56.118Z,1362.00
2024-04-11T10:43:49.964Z,1373.00
2024-04-11T10:44:49.020Z,1217.00
2024-04-11T10:45:49.009Z,1145.00
2024-04-11T10:46:48.986Z,1158.00
2024-04-11T10:47:49.184Z,1156.00
2024-04-11T10:48:49.103Z,1291.00
2024-04-11T10:49:48.983Z,1317.00
2024-04-11T10:50:49.082Z,1400.00
2024-04-11T10:51:48.986Z,1409.00
2024-04-11T10:52:48.979Z,1428.00
2024-04-11T10:53:49.055Z,1457.00
2024-04-11T10:54:48.989Z,1475.00
2024-04-11T10:55:49.037Z,1489.00
2024-04-11T10:56:49.145Z,1498.00
2024-04-11T10:57:49.181Z,1494.00
2024-04-11T10:58:49.248Z,1497.00
2024-04-11T10:59:49.324Z,1487.00
2024-04-11T11:00:49.410Z,1490.00
2024-04-11T11:01:56.146Z,1497.00
2024-04-11T11:02:50.586Z,1506.00
2024-04-11T11:03:50.094Z,1431.00
2024-04-11T11:04:49.525Z,1447.00
2024-04-11T11:05:49.562Z,1412.00
2024-04-11T11:06:49.525Z,1320.00
2024-04-11T11:07:49.532Z,1448.00
2024-04-11T11:08:49.540Z,1401.00
2024-04-11T11:09:49.530Z,1396.00
2024-04-11T11:10:49.524Z,1377.00
2024-04-11T11:11:49.709Z,1381.00
2024-04-11T11:12:49.710Z,1369.00
2024-04-11T11:13:49.791Z,1408.00
2024-04-11T11:14:49.917Z,1411.00
2024-04-11T11:15:50.051Z,1474.00
2024-04-11T11:16:50.084Z,1487.00
2024-04-11T11:17:50.255Z,1481.00
2024-04-11T11:18:50.304Z,1471.00
2024-04-11T11:19:50.404Z,1464.00
2024-04-11T11:20:50.557Z,1468.00
2024-04-11T11:21:50.590Z,1493.00
2024-04-11T11:22:50.724Z,1531.00
2024-04-11T11:23:50.845Z,1533.00
2024-04-11T11:24:50.922Z,1515.00
2024-04-11T11:25:51.002Z,1517.00
2024-04-11T11:26:51.178Z,1530.00
2024-04-11T11:27:51.236Z,1553.00
2024-04-11T11:28:51.296Z,1554.00
2024-04-11T11:29:51.403Z,1548.00
2024-04-11T11:30:51.504Z,1543.00
2024-04-11T11:31:51.680Z,1546.00
2024-04-11T11:32:51.804Z,1548.00
2024-04-11T11:33:51.918Z,1536.00
2024-04-11T11:34:51.914Z,1519.00
2024-04-11T11:35:52.150Z,1572.00
2024-04-11T11:36:52.123Z,1570.00
2024-04-11T11:37:52.182Z,1578.00
2024-04-11T11:38:52.316Z,1579.00
2024-04-11T11:39:52.638Z,1590.00
2024-04-11T11:40:52.462Z,1722.00
2024-04-11T11:41:52.571Z,1705.00
2024-04-11T11:42:52.655Z,1704.00
2024-04-11T11:43:52.760Z,1708.00
2024-04-11T11:44:52.962Z,1559.00
2024-04-11T11:45:52.954Z,1538.00
2024-04-11T11:46:53.138Z,1365.00
2024-04-11T11:47:53.253Z,1522.00
2024-04-11T11:48:53.376Z,1404.00
2024-04-11T11:49:53.393Z,1358.00
2024-04-11T11:50:53.565Z,1404.00
2024-04-11T11:51:53.577Z,1452.00
2024-04-11T11:52:55.862Z,1414.00
2024-04-11T11:53:53.750Z,1397.00
2024-04-11T11:54:53.718Z,1332.00
2024-04-11T11:55:59.280Z,1231.00
2024-04-11T11:56:54.796Z,1144.00
2024-04-11T11:57:53.703Z,1034.00
2024-04-11T11:58:53.710Z,1046.00
2024-04-11T11:59:53.783Z,1061.00
2024-04-11T12:00:53.737Z,1065.00
2024-04-11T12:01:53.755Z,1016.00
2024-04-11T12:02:53.780Z,987.00
2024-04-11T12:03:53.818Z,932.00
2024-04-11T12:04:54.001Z,914.00
2024-04-11T12:05:54.109Z,861.00
2024-04-11T12:06:53.907Z,852.00
2024-04-11T12:07:53.974Z,824.00
2024-04-11T12:08:54.030Z,803.00
2024-04-11T12:09:54.068Z,784.00
2024-04-11T12:10:54.171Z,772.00
2024-04-11T12:11:54.190Z,768.00
2024-04-11T12:12:56.658Z,711.00
2024-04-11T12:13:54.200Z,722.00
2024-04-11T12:14:54.211Z,718.00
2024-04-11T12:15:54.209Z,703.00
2024-04-11T12:16:54.286Z,695.00
2024-04-11T12:17:54.297Z,684.00
2024-04-11T12:18:54.211Z,674.00
2024-04-11T12:19:54.198Z,664.00
2024-04-11T12:20:54.413Z,662.00
2024-04-11T12:21:54.191Z,658.00
2024-04-11T12:22:54.220Z,650.00
2024-04-11T12:23:54.375Z,645.00